Terminal Aerodrome Forecast
Issued by NWS

Current Version | Previous Version | Text Only | Print | Product List | Glossary On
Versions: 1 2 3 4 5 6 7 8 9 10 11 12 13 14 15 16 17 18 19 20
000
FTUS46 KEKA 202343
TAFCEC
TAF
KCEC 202343Z 2100/2124 17020G35KT 1SM RA BR BKN005 OVC015
      TEMPO 2100/2104 2SM -RA
     FM210600 17018G25KT 4SM -RA SCT005 BKN015 OVC025
     FM211100 18010KT 5SM -RA SCT007 OVC015
     FM211700 19012KT 4SM -RA SCT007 OVC015=

USA.gov is the U.S. government's official web portal to all federal, state and local government web resources and services.